Time;durP1;ratioP1;P1;durP2;ratioP2;P2;SDS_P1;SDS_P2;PMS_P1;PMS_P2;Temp;Humidity;BMP_temperature;BMP_pressure;BME280_temperature;BME280_humidity;BME280_pressure;Samples;Min_cycle;Max_cycle;Signal;HPM_P1;HPM_P2
2021/03/30 00:01:51;;;;;;;4.47;3.33;;;11.70;42.50;;;;;;5015731;28;20429;-77
2021/03/30 00:04:19;;;;;;;4.47;3.07;;;11.70;44.90;;;;;;5015458;28;20488;-77
2021/03/30 00:06:46;;;;;;;3.63;3.33;;;11.70;48.20;;;;;;5015390;28;20441;-77
2021/03/30 00:09:13;;;;;;;7.07;3.33;;;11.70;48.40;;;;;;5015490;28;20407;-77
2021/03/30 00:11:41;;;;;;;3.13;2.60;;;11.70;49.70;;;;;;5031969;28;20418;-77
2021/03/30 00:14:09;;;;;;;5.77;3.83;;;11.60;52.90;;;;;;5017202;28;20423;-78
2021/03/30 00:16:36;;;;;;;4.87;3.50;;;11.60;54.90;;;;;;5016940;28;20933;-77
2021/03/30 00:19:04;;;;;;;2.90;2.70;;;11.50;54.50;;;;;;5016145;28;20520;-77
2021/03/30 00:21:31;;;;;;;3.77;3.17;;;11.50;57.10;;;;;;5016941;28;20449;-77
2021/03/30 00:23:58;;;;;;;6.10;3.20;;;11.50;59.40;;;;;;5017037;28;20971;-78
2021/03/30 00:26:25;;;;;;;5.07;2.90;;;11.50;59.90;;;;;;5016945;28;20465;-78
2021/03/30 00:28:52;;;;;;;5.30;3.10;;;11.50;64.80;;;;;;5015760;28;20427;-77
2021/03/30 00:31:21;;;;;;;8.80;3.10;;;11.40;63.50;;;;;;5016485;28;20418;-76
2021/03/30 00:33:48;;;;;;;4.40;3.10;;;11.40;69.80;;;;;;5016052;28;20444;-77
2021/03/30 00:36:15;;;;;;;3.43;2.47;;;11.30;70.40;;;;;;5016433;28;20510;-77
2021/03/30 00:38:42;;;;;;;6.73;2.80;;;11.30;70.70;;;;;;5016551;28;20406;-77
2021/03/30 00:41:09;;;;;;;8.17;2.90;;;11.30;80.00;;;;;;5031223;28;20443;-77
2021/03/30 00:43:37;;;;;;;3.87;2.40;;;11.30;89.80;;;;;;5015397;28;20440;-77
2021/03/30 00:46:13;;;;;;;5.70;3.60;;;11.20;85.30;;;;;;5015716;28;20441;-76
2021/03/30 00:48:42;;;;;;;4.60;3.57;;;11.20;83.90;;;;;;5015589;28;20420;-76
2021/03/30 00:51:09;;;;;;;3.10;2.80;;;11.20;84.70;;;;;;5014019;28;20407;-77
2021/03/30 00:54:03;;;;;;;7.17;3.40;;;11.20;82.30;;;;;;5015094;28;20423;-77
2021/03/30 00:56:42;;;;;;;4.43;3.20;;;11.20;84.20;;;;;;5013405;28;20474;-77
2021/03/30 00:59:10;;;;;;;5.77;3.43;;;11.20;84.40;;;;;;5013538;28;20444;-75
2021/03/30 01:01:38;;;;;;;5.77;2.70;;;11.20;85.90;;;;;;5015538;28;20396;-77
2021/03/30 01:04:06;;;;;;;4.90;4.20;;;11.20;87.30;;;;;;5014808;28;20548;-77
2021/03/30 01:06:34;;;;;;;15.30;3.80;;;11.10;89.20;;;;;;5013444;28;20974;-77
2021/03/30 01:09:19;;;;;;;7.57;2.60;;;11.20;93.80;;;;;;5015105;28;20413;-76
2021/03/30 01:11:59;;;;;;;5.47;3.00;;;11.20;95.30;;;;;;5013175;28;20475;-76
2021/03/30 01:14:42;;;;;;;3.83;3.40;;;11.20;98.60;;;;;;5015007;28;20492;-78
2021/03/30 01:17:18;;;;;;;6.17;3.80;;;11.10;96.70;;;;;;5020374;28;20455;-78
2021/03/30 01:20:30;;;;;;;2.97;2.70;;;10.90;97.20;;;;;;5050818;28;20463;-76
2021/03/30 01:23:34;;;;;;;5.23;3.20;;;10.80;98.20;;;;;;5037888;28;20408;-77
2021/03/30 01:26:16;;;;;;;7.30;3.77;;;10.70;98.50;;;;;;5037751;28;20426;-77
2021/03/30 01:29:10;;;;;;;5.00;3.63;;;10.60;99.90;;;;;;5037356;28;20460;-77
2021/03/30 01:31:40;;;;;;;3.87;2.60;;;10.60;99.90;;;;;;5053531;28;20441;-78
2021/03/30 01:34:11;;;;;;;6.77;3.60;;;10.60;99.90;;;;;;5037351;28;20384;-76
2021/03/30 01:36:42;;;;;;;4.00;3.50;;;10.50;99.90;;;;;;5037530;28;20433;-77
2021/03/30 01:39:12;;;;;;;7.73;3.40;;;10.50;99.90;;;;;;5037331;28;20412;-76
2021/03/30 01:41:46;;;;;;;5.30;4.07;;;10.60;99.90;;;;;;5037614;28;20440;-77
2021/03/30 01:44:14;;;;;;;5.95;3.67;;;10.50;99.90;;;;;;5037784;28;20208;-77
2021/03/30 01:46:43;;;;;;;6.30;3.30;;;10.30;99.90;;;;;;5037602;28;20186;-77
2021/03/30 01:49:12;;;;;;;6.10;4.30;;;10.30;99.90;;;;;;5038034;28;20436;-77
2021/03/30 01:51:41;;;;;;;4.35;3.35;;;10.30;99.90;;;;;;5038170;28;20448;-77
2021/03/30 01:54:11;;;;;;;5.60;3.50;;;10.30;99.90;;;;;;5052921;28;20322;-77
2021/03/30 01:56:40;;;;;;;5.07;4.18;;;10.30;99.90;;;;;;5034406;28;20241;-78
2021/03/30 01:59:13;;;;;;;5.03;3.60;;;10.30;99.90;;;;;;5015835;28;20198;-77
2021/03/30 02:01:44;;;;;;;13.40;4.65;;;10.30;99.90;;;;;;5014244;28;20174;-77
2021/03/30 02:04:12;;;;;;;5.50;3.87;;;10.30;99.90;;;;;;5029022;28;20202;-77
2021/03/30 02:06:42;;;;;;;6.32;3.45;;;10.20;99.90;;;;;;5028725;28;20501;-77
2021/03/30 02:09:14;;;;;;;8.70;2.70;;;10.20;99.90;;;;;;5016005;28;20198;-76
2021/03/30 02:11:45;;;;;;;5.00;4.50;;;10.30;99.90;;;;;;5015216;28;20508;-76
2021/03/30 02:14:14;;;;;;;5.77;3.20;;;10.20;99.90;;;;;;5012795;28;20646;-77
2021/03/30 02:16:48;;;;;;;5.45;3.38;;;10.10;99.90;;;;;;5029427;28;20464;-77
2021/03/30 02:19:18;;;;;;;6.22;3.83;;;10.10;99.90;;;;;;5013440;28;20177;-77
2021/03/30 02:21:57;;;;;;;6.22;3.95;;;10.00;99.90;;;;;;5030782;28;20205;-76
2021/03/30 02:24:25;;;;;;;5.88;4.40;;;9.90;99.90;;;;;;5021116;28;20198;-77
2021/03/30 02:26:54;;;;;;;5.32;4.03;;;9.80;99.90;;;;;;5021930;28;20202;-77
2021/03/30 02:29:24;;;;;;;4.07;3.38;;;9.90;99.90;;;;;;5020797;28;20544;-78
2021/03/30 02:31:55;;;;;;;5.70;3.90;;;9.80;99.90;;;;;;5018276;28;20190;-78
2021/03/30 02:34:26;;;;;;;8.07;4.45;;;9.80;99.90;;;;;;5013699;28;20197;-76
2021/03/30 02:36:56;;;;;;;5.97;4.10;;;9.80;99.90;;;;;;5014320;28;20285;-77
2021/03/30 02:39:25;;;;;;;6.78;3.55;;;9.80;99.90;;;;;;5013874;28;20197;-78
2021/03/30 02:41:55;;;;;;;6.25;4.13;;;9.70;99.90;;;;;;5012412;28;20205;-77
2021/03/30 02:44:23;;;;;;;8.15;4.20;;;9.70;99.90;;;;;;5012686;28;20221;-77
2021/03/30 02:46:51;;;;;;;6.07;4.03;;;9.60;99.90;;;;;;5032651;28;20217;-76
2021/03/30 02:49:21;;;;;;;6.03;4.03;;;9.60;99.90;;;;;;5016689;28;20429;-77
2021/03/30 02:51:50;;;;;;;4.40;4.00;;;9.70;99.90;;;;;;5016812;28;20559;-77
2021/03/30 02:54:18;;;;;;;4.80;4.00;;;9.60;99.90;;;;;;5017369;28;20197;-77
2021/03/30 02:56:47;;;;;;;6.63;4.97;;;9.70;99.90;;;;;;5015516;28;20585;-78
2021/03/30 02:59:18;;;;;;;5.43;4.70;;;9.70;99.90;;;;;;5017937;28;20197;-76
2021/03/30 03:01:46;;;;;;;5.25;4.30;;;9.70;99.90;;;;;;5016950;28;20232;-77
2021/03/30 03:04:13;;;;;;;6.28;4.47;;;9.60;99.90;;;;;;5017891;28;20206;-76
2021/03/30 03:06:43;;;;;;;6.35;3.08;;;9.70;99.90;;;;;;5016130;28;20561;-76
2021/03/30 03:09:11;;;;;;;4.53;4.13;;;9.70;99.90;;;;;;5016413;28;20565;-77
2021/03/30 03:11:40;;;;;;;8.65;4.85;;;9.70;99.90;;;;;;5016800;28;20183;-77
2021/03/30 03:14:09;;;;;;;7.82;5.20;;;9.70;99.90;;;;;;5016955;28;20182;-77
2021/03/30 03:16:38;;;;;;;4.97;4.07;;;9.70;99.90;;;;;;5017617;28;20233;-77
2021/03/30 03:19:07;;;;;;;10.70;4.35;;;9.60;99.90;;;;;;5018438;28;20205;-77
2021/03/30 03:21:35;;;;;;;10.50;3.97;;;9.50;99.90;;;;;;5017634;28;20679;-77
2021/03/30 03:24:04;;;;;;;8.38;5.30;;;9.40;99.90;;;;;;5016493;28;20187;-78
2021/03/30 03:26:32;;;;;;;8.65;5.75;;;9.40;99.90;;;;;;5016169;28;20256;-77
2021/03/30 03:28:59;;;;;;;8.13;4.30;;;9.40;99.90;;;;;;5031626;28;20194;-77
2021/03/30 03:31:28;;;;;;;7.35;4.45;;;9.40;99.90;;;;;;5015658;28;20190;-77
2021/03/30 03:34:01;;;;;;;9.20;4.43;;;9.50;99.90;;;;;;5014486;28;20290;-77
2021/03/30 03:36:35;;;;;;;5.90;3.88;;;9.40;99.90;;;;;;5015830;28;20217;-77
2021/03/30 03:39:05;;;;;;;5.20;3.88;;;9.50;99.90;;;;;;5016133;28;20826;-77
2021/03/30 03:41:33;;;;;;;6.07;4.13;;;9.50;99.90;;;;;;5016022;28;20251;-76
2021/03/30 03:44:00;;;;;;;5.88;3.55;;;9.50;99.90;;;;;;5014527;28;20580;-77
2021/03/30 03:46:27;;;;;;;7.68;4.70;;;9.40;99.90;;;;;;5015920;28;20221;-76
2021/03/30 03:48:54;;;;;;;3.40;3.10;;;9.40;99.90;;;;;;5030803;28;20182;-76
2021/03/30 03:51:23;;;;;;;7.13;4.05;;;9.40;99.90;;;;;;5016233;28;20194;-76
2021/03/30 03:53:53;;;;;;;7.10;5.22;;;9.30;99.90;;;;;;5017199;28;20590;-77
2021/03/30 03:56:26;;;;;;;6.30;4.05;;;9.40;99.90;;;;;;5017585;28;20210;-78
2021/03/30 03:58:59;;;;;;;6.82;4.30;;;9.40;99.90;;;;;;5016352;28;20583;-77
2021/03/30 04:01:35;;;;;;;11.40;4.65;;;9.30;99.90;;;;;;5015874;28;20186;-77
2021/03/30 04:04:07;;;;;;;13.75;5.85;;;9.30;99.90;;;;;;5015916;28;20189;-78
2021/03/30 04:06:37;;;;;;;10.50;6.07;;;9.30;99.90;;;;;;5016494;28;20206;-77
2021/03/30 04:09:09;;;;;;;8.60;4.72;;;9.20;99.90;;;;;;5016403;28;20547;-77
2021/03/30 04:11:39;;;;;;;6.75;5.65;;;9.20;99.90;;;;;;5016273;28;20587;-77
2021/03/30 04:14:07;;;;;;;5.20;4.60;;;9.10;99.90;;;;;;5017114;28;20264;-76
2021/03/30 04:16:35;;;;;;;7.38;5.75;;;9.10;99.90;;;;;;5019037;28;20253;-76
2021/03/30 04:19:03;;;;;;;10.23;4.88;;;9.10;99.90;;;;;;5016865;28;20625;-76
2021/03/30 04:21:32;;;;;;;5.60;4.30;;;9.10;99.90;;;;;;5016886;28;20186;-77
2021/03/30 04:23:59;;;;;;;8.50;5.22;;;9.10;99.90;;;;;;5016732;28;20245;-78
2021/03/30 04:26:27;;;;;;;5.38;4.32;;;9.10;99.90;;;;;;5017482;28;20206;-77
2021/03/30 04:28:55;;;;;;;9.50;4.95;;;9.20;99.90;;;;;;5015110;28;20185;-77
2021/03/30 04:31:22;;;;;;;7.38;4.93;;;9.20;99.90;;;;;;5014705;28;20201;-76
2021/03/30 04:33:49;;;;;;;7.70;4.43;;;9.20;99.90;;;;;;5014492;28;20193;-77
2021/03/30 04:36:16;;;;;;;4.35;3.95;;;9.20;99.90;;;;;;5014183;28;20202;-77
2021/03/30 04:38:43;;;;;;;5.50;4.32;;;9.10;99.90;;;;;;5015303;28;20197;-78
2021/03/30 04:41:11;;;;;;;5.80;4.50;;;9.10;99.90;;;;;;5014012;28;20178;-76
2021/03/30 04:43:38;;;;;;;5.75;4.55;;;9.00;99.90;;;;;;5015065;28;20174;-76
2021/03/30 04:46:07;;;;;;;8.07;6.25;;;9.10;99.90;;;;;;5014856;28;20217;-77
2021/03/30 04:48:35;;;;;;;8.20;5.00;;;9.20;99.90;;;;;;5014787;28;20196;-77
2021/03/30 04:51:03;;;;;;;11.35;5.70;;;9.20;99.90;;;;;;5013295;28;20212;-77
2021/03/30 04:53:31;;;;;;;5.43;4.47;;;9.30;99.90;;;;;;5014918;28;20182;-77
2021/03/30 04:55:58;;;;;;;9.52;6.78;;;9.30;99.90;;;;;;5015117;28;20238;-77
2021/03/30 04:58:25;;;;;;;8.50;6.47;;;9.40;99.90;;;;;;5015857;28;20197;-77
2021/03/30 05:00:53;;;;;;;13.13;7.13;;;9.40;99.90;;;;;;5016260;28;20236;-77
2021/03/30 05:03:21;;;;;;;6.70;5.00;;;9.60;99.90;;;;;;5016488;28;20190;-77
2021/03/30 05:05:48;;;;;;;7.03;4.57;;;9.70;99.90;;;;;;5015711;28;20225;-77
2021/03/30 05:08:15;;;;;;;6.78;4.60;;;9.60;99.90;;;;;;5013503;28;20190;-76
2021/03/30 05:10:43;;;;;;;13.52;4.60;;;9.60;99.90;;;;;;5013590;28;20202;-77
2021/03/30 05:13:09;;;;;;;10.40;5.05;;;9.70;99.90;;;;;;5014272;28;20552;-77
2021/03/30 05:15:37;;;;;;;7.88;4.93;;;9.60;99.90;;;;;;5018574;28;20557;-77
2021/03/30 05:18:05;;;;;;;19.88;6.97;;;9.70;99.90;;;;;;5036970;28;20683;-77
2021/03/30 05:20:33;;;;;;;11.23;5.65;;;9.80;99.90;;;;;;5041327;28;20198;-77
2021/03/30 05:23:00;;;;;;;10.02;5.40;;;9.80;99.90;;;;;;5020813;28;20197;-78
2021/03/30 05:25:27;;;;;;;9.98;4.95;;;9.80;99.90;;;;;;5018367;28;20276;-77
2021/03/30 05:27:54;;;;;;;6.00;4.63;;;9.80;99.90;;;;;;5020402;28;20194;-77
2021/03/30 05:30:22;;;;;;;9.73;5.57;;;9.90;99.90;;;;;;5017778;28;20198;-77
2021/03/30 05:32:49;;;;;;;7.05;5.47;;;9.90;99.90;;;;;;5031328;28;20257;-77
2021/03/30 05:35:16;;;;;;;6.00;4.72;;;9.90;99.90;;;;;;5034556;28;20265;-75
2021/03/30 05:37:44;;;;;;;9.13;5.45;;;10.10;99.90;;;;;;5036961;28;20184;-77
2021/03/30 05:40:14;;;;;;;15.32;5.35;;;10.20;99.90;;;;;;5036959;28;20170;-77
2021/03/30 05:42:42;;;;;;;15.70;5.75;;;10.30;99.90;;;;;;5037750;28;20196;-77
2021/03/30 05:45:11;;;;;;;9.30;6.00;;;10.40;99.90;;;;;;5034221;28;20222;-76
2021/03/30 05:47:38;;;;;;;6.05;5.32;;;10.50;99.90;;;;;;5052840;28;20415;-76
2021/03/30 05:50:10;;;;;;;7.00;5.70;;;10.50;99.90;;;;;;5036479;28;20185;-78
2021/03/30 05:52:45;;;;;;;9.97;5.20;;;10.60;99.10;;;;;;5025395;28;20417;-78
2021/03/30 05:58:04;;;;;;;5.97;5.17;;;10.70;93.00;;;;;;4971679;28;20223;-72
2021/03/30 06:00:35;;;;;;;8.70;5.30;;;10.80;91.80;;;;;;4971207;28;21095;-72
2021/03/30 06:03:05;;;;;;;10.20;7.20;;;10.90;90.30;;;;;;4972609;28;20467;-75
2021/03/30 06:05:33;;;;;;;5.40;4.80;;;11.00;94.30;;;;;;4976902;28;20478;-72
2021/03/30 06:08:02;;;;;;;7.77;4.50;;;11.10;79.10;;;;;;4981358;28;20454;-73
2021/03/30 06:10:31;;;;;;;5.90;5.30;;;11.20;79.00;;;;;;4982808;28;20403;-73
2021/03/30 06:12:59;;;;;;;8.07;5.70;;;11.40;74.70;;;;;;4982248;28;20422;-74
2021/03/30 06:15:29;;;;;;;13.93;6.23;;;11.40;67.20;;;;;;4984775;28;20417;-74
2021/03/30 06:17:57;;;;;;;8.00;5.87;;;11.50;59.90;;;;;;4979226;28;20443;-72
2021/03/30 06:20:33;;;;;;;8.17;6.70;;;11.60;56.50;;;;;;4976872;28;20427;-72
2021/03/30 06:23:02;;;;;;;8.37;6.27;;;11.60;50.50;;;;;;4976248;28;20411;-74
2021/03/30 06:25:52;;;;;;;8.73;5.70;;;11.70;47.30;;;;;;4976777;28;20834;-74
2021/03/30 06:28:21;;;;;;;7.57;4.40;;;11.80;45.50;;;;;;4973984;28;20477;-73
2021/03/30 06:31:02;;;;;;;13.97;7.17;;;11.90;43.20;;;;;;4976973;28;20423;-75
2021/03/30 06:33:30;;;;;;;8.83;5.23;;;12.00;41.20;;;;;;4976289;28;20510;-74
2021/03/30 06:36:18;;;;;;;5.60;5.00;;;12.10;39.10;;;;;;4975901;28;20410;-73
2021/03/30 06:38:54;;;;;;;11.37;6.40;;;12.20;36.80;;;;;;4976205;28;20421;-73
2021/03/30 06:41:32;;;;;;;9.20;4.80;;;12.30;35.00;;;;;;4974625;28;20428;-73
2021/03/30 06:46:49;;;;;;;9.30;5.70;;;12.50;30.80;;;;;;4975238;28;20508;-73
2021/03/30 06:49:17;;;;;;;11.93;6.43;;;12.60;29.30;;;;;;4975279;28;20419;-73
2021/03/30 06:51:44;;;;;;;6.97;4.97;;;12.70;28.30;;;;;;4975193;28;20433;-74
2021/03/30 06:54:12;;;;;;;8.43;5.73;;;12.80;26.90;;;;;;4974349;28;20420;-73
2021/03/30 06:56:50;;;;;;;7.03;6.30;;;12.90;26.10;;;;;;4974954;28;20432;-73
2021/03/30 06:59:18;;;;;;;11.10;6.00;;;12.90;23.60;;;;;;4975751;28;20910;-73
2021/03/30 07:01:49;;;;;;;11.00;6.27;;;12.90;21.90;;;;;;4975303;28;20527;-73
2021/03/30 07:04:17;;;;;;;8.27;5.27;;;13.00;20.70;;;;;;4975390;28;20967;-73
2021/03/30 07:06:50;;;;;;;12.97;6.20;;;13.10;27.80;;;;;;4974766;28;20528;-74
2021/03/30 07:09:17;;;;;;;9.27;6.17;;;13.30;19.40;;;;;;4975005;28;20482;-73
2021/03/30 07:11:45;;;;;;;8.90;6.50;;;13.40;18.10;;;;;;4975423;28;20874;-74
2021/03/30 07:14:12;;;;;;;10.60;6.53;;;13.40;16.30;;;;;;4975268;28;20407;-75
2021/03/30 07:16:50;;;;;;;7.57;5.83;;;13.60;15.10;;;;;;4975229;28;20530;-73
2021/03/30 07:19:24;;;;;;;8.43;7.20;;;13.70;13.60;;;;;;4975139;28;20389;-75
2021/03/30 07:22:04;;;;;;;9.60;5.90;;;13.80;12.20;;;;;;4975209;28;20416;-74
2021/03/30 07:24:39;;;;;;;9.20;6.83;;;13.90;18.20;;;;;;4975720;28;20415;-75
2021/03/30 07:27:13;;;;;;;9.03;5.57;;;13.90;8.60;;;;;;4975527;28;20853;-74
2021/03/30 07:29:45;;;;;;;9.97;6.80;;;13.90;7.20;;;;;;4975228;28;20407;-74
2021/03/30 07:32:41;;;;;;;13.50;7.90;;;13.90;6.20;;;;;;4974914;28;20928;-76
2021/03/30 07:35:14;;;;;;;8.77;7.30;;;14.00;5.10;;;;;;4974800;28;20427;-75
2021/03/30 07:37:51;;;;;;;9.00;6.80;;;14.20;4.40;;;;;;4974951;28;20418;-76
2021/03/30 07:40:20;;;;;;;9.93;6.80;;;14.30;3.30;;;;;;4975018;28;20766;-74
2021/03/30 07:42:48;;;;;;;12.60;7.23;;;14.40;2.30;;;;;;4974857;28;20464;-74
2021/03/30 07:45:20;;;;;;;14.67;7.47;;;14.40;1.00;;;;;;4974673;28;20430;-74
2021/03/30 07:47:49;;;;;;;11.07;8.20;;;14.50;1.00;;;;;;4974565;28;20468;-74
2021/03/30 07:50:17;;;;;;;15.60;6.30;;;14.50;1.00;;;;;;4973064;28;20414;-74
2021/03/30 07:52:48;;;;;;;9.43;8.33;;;14.50;1.00;;;;;;4974356;28;20449;-75
2021/03/30 07:55:23;;;;;;;9.40;7.80;;;14.50;1.00;;;;;;4973736;28;20429;-73
2021/03/30 07:58:02;;;;;;;10.10;7.20;;;14.50;1.00;;;;;;4974026;28;20417;-74
2021/03/30 08:00:46;;;;;;;10.93;7.00;;;14.60;1.00;;;;;;4974087;28;20481;-74
2021/03/30 08:03:17;;;;;;;13.70;7.70;;;14.70;1.00;;;;;;4973800;28;20389;-74
2021/03/30 08:05:44;;;;;;;7.57;5.80;;;14.80;1.00;;;;;;4973775;28;20798;-74
2021/03/30 08:08:21;;;;;;;15.60;7.30;;;14.90;1.00;;;;;;4974040;28;20447;-74
2021/03/30 08:10:50;;;;;;;8.77;6.67;;;15.00;1.00;;;;;;4973843;28;20419;-73
2021/03/30 08:13:27;;;;;;;13.47;7.37;;;15.20;1.00;;;;;;4973718;28;20394;-73
2021/03/30 08:15:56;;;;;;;10.10;6.20;;;15.20;1.00;;;;;;4973753;28;20385;-72
2021/03/30 08:18:26;;;;;;;8.17;5.80;;;15.30;1.00;;;;;;4973321;28;20397;-75
2021/03/30 08:20:57;;;;;;;11.30;7.43;;;15.40;1.00;;;;;;4973287;28;20438;-74
2021/03/30 08:23:26;;;;;;;9.13;6.83;;;15.60;1.00;;;;;;4973710;28;20486;-75
2021/03/30 08:26:15;;;;;;;12.27;7.90;;;15.60;1.00;;;;;;4973765;28;20469;-73
2021/03/30 08:28:57;;;;;;;11.20;8.17;;;15.70;1.00;;;;;;4973836;28;20416;-74
2021/03/30 08:31:27;;;;;;;7.80;7.00;;;15.90;1.00;;;;;;4973878;28;20425;-75
2021/03/30 08:33:57;;;;;;;18.00;7.53;;;15.90;1.00;;;;;;4973894;28;20410;-75
2021/03/30 08:36:28;;;;;;;9.90;8.10;;;15.90;1.00;;;;;;4973293;28;20426;-74
2021/03/30 08:38:58;;;;;;;17.30;8.83;;;16.00;1.00;;;;;;4973798;28;20382;-75
2021/03/30 08:41:57;;;;;;;15.70;8.50;;;16.00;1.00;;;;;;4973106;28;20411;-73
2021/03/30 08:44:41;;;;;;;8.20;7.00;;;16.20;1.00;;;;;;4974026;28;20984;-74
2021/03/30 08:47:32;;;;;;;13.70;6.90;;;16.20;1.00;;;;;;4975092;28;20988;-74
2021/03/30 08:50:23;;;;;;;11.30;6.40;;;16.20;1.00;;;;;;4973658;28;20469;-75
2021/03/30 08:52:52;;;;;;;14.37;7.00;;;16.20;1.00;;;;;;4973180;28;20766;-73
2021/03/30 08:55:27;;;;;;;8.07;6.53;;;16.10;1.00;;;;;;4973225;28;20390;-75
2021/03/30 08:57:57;;;;;;;13.13;7.60;;;16.10;1.00;;;;;;4973034;28;20427;-75
2021/03/30 09:00:25;;;;;;;11.30;7.20;;;16.20;1.00;;;;;;4973310;28;20943;-75
2021/03/30 09:02:59;;;;;;;9.53;6.90;;;16.40;1.00;;;;;;4971814;28;20409;-73
2021/03/30 09:05:27;;;;;;;11.00;8.20;;;16.40;1.00;;;;;;4972795;28;20442;-73
2021/03/30 09:07:54;;;;;;;10.30;6.30;;;16.30;1.00;;;;;;4971385;28;20441;-73
2021/03/30 09:10:22;;;;;;;7.60;6.67;;;16.40;1.00;;;;;;4972979;28;20406;-74
2021/03/30 09:12:49;;;;;;;12.07;7.27;;;16.50;1.00;;;;;;4973481;28;20418;-72
2021/03/30 09:15:17;;;;;;;13.07;7.30;;;16.70;1.00;;;;;;4973620;28;20450;-73
2021/03/30 09:17:57;;;;;;;8.97;6.40;;;17.00;1.00;;;;;;4973712;28;20946;-73
2021/03/30 09:20:27;;;;;;;8.37;6.60;;;17.10;1.00;;;;;;4973317;28;20937;-74
2021/03/30 09:22:56;;;;;;;9.60;7.17;;;17.20;1.00;;;;;;4973506;28;20430;-75
2021/03/30 09:25:33;;;;;;;12.40;8.07;;;17.10;1.00;;;;;;4973706;28;20445;-74
2021/03/30 09:28:01;;;;;;;10.40;6.30;;;17.10;1.00;;;;;;4973760;28;20795;-73
2021/03/30 09:30:28;;;;;;;7.93;6.10;;;17.20;1.00;;;;;;4973082;28;20919;-73
2021/03/30 09:32:57;;;;;;;7.43;5.57;;;17.40;1.00;;;;;;4971408;28;20435;-73
2021/03/30 09:35:25;;;;;;;9.40;6.37;;;17.50;1.00;;;;;;4972542;28;20453;-73
2021/03/30 09:37:56;;;;;;;13.67;7.10;;;17.80;1.00;;;;;;4973235;28;20473;-75
2021/03/30 09:40:26;;;;;;;7.90;6.13;;;17.90;1.00;;;;;;4972715;28;20458;-74
2021/03/30 09:42:54;;;;;;;8.30;5.90;;;17.80;1.00;;;;;;4973180;28;20401;-73
2021/03/30 09:45:28;;;;;;;8.13;6.00;;;17.80;1.00;;;;;;4973408;28;20558;-74
2021/03/30 09:47:56;;;;;;;9.53;6.60;;;17.80;1.00;;;;;;4972649;28;20422;-74
2021/03/30 09:50:25;;;;;;;9.40;6.67;;;17.80;1.00;;;;;;4972547;28;20435;-74
2021/03/30 09:53:04;;;;;;;8.47;6.17;;;17.80;1.00;;;;;;4972698;28;20496;-74
2021/03/30 09:55:33;;;;;;;8.37;6.63;;;17.80;1.00;;;;;;4972147;28;20461;-73
2021/03/30 09:58:03;;;;;;;12.67;7.47;;;17.90;1.00;;;;;;4972336;28;20446;-75
2021/03/30 10:00:31;;;;;;;10.70;7.67;;;18.10;1.00;;;;;;4972159;28;20482;-73
2021/03/30 10:03:00;;;;;;;13.90;7.87;;;18.10;1.00;;;;;;4973078;28;20397;-74
2021/03/30 10:05:33;;;;;;;11.77;5.80;;;18.10;1.00;;;;;;4972303;28;20517;-73
2021/03/30 10:08:00;;;;;;;8.50;6.47;;;18.30;1.00;;;;;;4972461;28;20474;-75
2021/03/30 10:10:42;;;;;;;9.07;6.03;;;18.40;1.00;;;;;;4972420;28;20420;-75
2021/03/30 10:13:23;;;;;;;12.67;8.40;;;18.50;1.00;;;;;;4973270;28;20430;-73
2021/03/30 10:15:51;;;;;;;12.30;6.80;;;18.70;1.00;;;;;;4975346;28;20429;-73
2021/03/30 10:18:20;;;;;;;17.80;7.57;;;18.60;1.00;;;;;;4975207;28;20406;-76
2021/03/30 10:20:49;;;;;;;10.23;6.60;;;18.60;1.00;;;;;;4975591;28;20431;-73
2021/03/30 10:23:18;;;;;;;12.90;7.50;;;18.70;1.00;;;;;;4971797;28;20401;-74
2021/03/30 10:25:48;;;;;;;11.83;7.90;;;18.80;1.00;;;;;;4954143;29;20862;-74
2021/03/30 10:28:25;;;;;;;10.63;8.50;;;18.70;1.00;;;;;;4952115;29;20414;-74
2021/03/30 10:30:56;;;;;;;10.50;8.10;;;18.60;1.00;;;;;;4959488;28;20470;-73
2021/03/30 10:33:39;;;;;;;13.50;7.63;;;18.60;1.00;;;;;;4972148;28;20398;-75
2021/03/30 10:36:09;;;;;;;10.90;7.33;;;18.60;1.00;;;;;;4972236;28;20477;-74
2021/03/30 10:38:37;;;;;;;11.90;8.20;;;18.60;1.00;;;;;;4971985;28;20402;-74
2021/03/30 10:41:07;;;;;;;15.30;7.93;;;18.60;1.00;;;;;;4972185;28;20906;-74
2021/03/30 10:43:34;;;;;;;9.40;6.07;;;18.70;1.00;;;;;;4972580;28;20503;-74
2021/03/30 10:46:02;;;;;;;12.10;7.37;;;18.90;1.00;;;;;;4972089;28;20468;-73
2021/03/30 10:48:29;;;;;;;11.10;7.20;;;18.80;1.00;;;;;;4972241;28;20501;-74
2021/03/30 10:50:56;;;;;;;9.10;6.40;;;19.00;1.00;;;;;;4971432;28;20401;-73
2021/03/30 10:53:23;;;;;;;8.90;6.60;;;19.20;1.00;;;;;;4971812;28;20401;-74
2021/03/30 10:55:51;;;;;;;10.90;7.00;;;19.30;1.00;;;;;;4966474;28;20677;-74
2021/03/30 10:58:20;;;;;;;10.10;7.30;;;19.40;1.00;;;;;;4952647;28;20435;-73
2021/03/30 11:00:47;;;;;;;7.80;6.87;;;19.50;1.00;;;;;;4952255;29;20435;-72
2021/03/30 11:03:27;;;;;;;11.73;6.67;;;19.50;1.00;;;;;;4952652;29;20447;-73
2021/03/30 11:05:54;;;;;;;15.40;7.30;;;19.60;1.00;;;;;;4953928;28;20469;-72
2021/03/30 11:08:21;;;;;;;9.17;6.43;;;19.30;1.00;;;;;;4956237;29;20405;-74
2021/03/30 11:10:48;;;;;;;15.03;8.00;;;19.40;1.00;;;;;;4956234;28;20923;-72
2021/03/30 11:13:15;;;;;;;10.13;7.00;;;19.60;1.00;;;;;;4967340;28;20449;-73
2021/03/30 11:15:43;;;;;;;12.73;7.70;;;19.60;1.00;;;;;;4975171;28;20437;-73
2021/03/30 11:18:10;;;;;;;10.63;7.63;;;19.80;1.00;;;;;;4958935;28;20426;-74
2021/03/30 11:20:37;;;;;;;10.90;7.10;;;19.90;1.00;;;;;;4954252;28;20419;-74
2021/03/30 11:23:06;;;;;;;13.27;8.03;;;19.80;1.00;;;;;;4956614;28;20935;-75
2021/03/30 11:25:33;;;;;;;9.47;6.47;;;19.80;1.00;;;;;;4954846;28;20441;-74
2021/03/30 11:28:04;;;;;;;10.07;7.20;;;20.00;1.00;;;;;;4955090;28;20947;-74
2021/03/30 11:30:37;;;;;;;6.03;5.13;;;20.10;1.00;;;;;;4957615;28;20911;-73
2021/03/30 11:33:08;;;;;;;9.90;6.87;;;20.30;1.00;;;;;;4956854;28;20824;-73
2021/03/30 11:35:43;;;;;;;19.73;11.23;;;20.10;1.00;;;;;;4956491;28;20936;-72
2021/03/30 11:38:12;;;;;;;9.67;6.67;;;20.10;1.00;;;;;;4956304;28;20455;-73
2021/03/30 11:40:40;;;;;;;14.00;7.63;;;20.20;1.00;;;;;;4956490;28;20971;-75
2021/03/30 11:43:08;;;;;;;6.80;5.63;;;20.20;1.00;;;;;;4956394;28;20448;-74
2021/03/30 11:45:35;;;;;;;11.30;8.20;;;20.30;1.00;;;;;;4962135;28;20470;-74
2021/03/30 11:48:04;;;;;;;12.50;7.00;;;20.50;1.00;;;;;;4974478;28;20425;-72
2021/03/30 11:50:33;;;;;;;17.00;8.23;;;20.30;1.00;;;;;;4978490;28;20397;-74
2021/03/30 11:53:00;;;;;;;10.47;6.43;;;20.30;1.00;;;;;;4974700;28;20433;-73
2021/03/30 11:55:34;;;;;;;9.93;6.70;;;20.40;1.00;;;;;;4974819;28;20838;-72
2021/03/30 11:58:01;;;;;;;10.53;6.73;;;20.60;1.00;;;;;;5029116;28;20480;-70
2021/03/30 12:00:28;;;;;;;9.50;6.00;;;20.80;1.00;;;;;;5032902;28;20399;-70
2021/03/30 12:03:09;;;;;;;11.23;6.77;;;20.90;1.00;;;;;;5033189;28;20767;-69
2021/03/30 12:05:37;;;;;;;10.60;7.20;;;21.00;1.00;;;;;;5031648;28;20462;-70
2021/03/30 12:08:05;;;;;;;8.63;6.00;;;20.70;1.00;;;;;;5033174;28;20785;-71
2021/03/30 12:10:32;;;;;;;8.60;5.80;;;20.70;1.00;;;;;;5033028;28;20536;-70
2021/03/30 12:12:59;;;;;;;10.27;6.43;;;20.70;1.00;;;;;;5033214;28;20903;-69
2021/03/30 12:15:27;;;;;;;10.10;7.07;;;20.90;1.00;;;;;;5033739;28;20870;-70
2021/03/30 12:17:54;;;;;;;13.93;7.40;;;20.70;1.00;;;;;;5033354;28;20505;-70
2021/03/30 12:20:21;;;;;;;7.37;5.50;;;20.60;1.00;;;;;;5031787;28;20474;-70
2021/03/30 12:22:49;;;;;;;11.00;6.37;;;20.50;1.00;;;;;;5033395;28;20441;-69
2021/03/30 12:25:16;;;;;;;9.93;6.23;;;20.60;1.00;;;;;;5033243;28;20416;-70
2021/03/30 12:27:43;;;;;;;9.70;5.80;;;20.60;1.00;;;;;;5033409;28;20530;-70
2021/03/30 12:30:11;;;;;;;14.80;7.53;;;20.90;1.00;;;;;;5032621;28;20428;-70
2021/03/30 12:32:39;;;;;;;11.03;6.83;;;20.90;1.00;;;;;;5033024;28;20442;-70
2021/03/30 12:35:07;;;;;;;14.03;6.90;;;21.00;1.00;;;;;;5031207;28;20436;-70
2021/03/30 12:37:34;;;;;;;10.40;6.80;;;20.90;1.00;;;;;;5032486;28;20444;-72
2021/03/30 12:40:03;;;;;;;8.70;6.20;;;21.00;1.00;;;;;;5032233;28;20503;-70
2021/03/30 12:42:31;;;;;;;13.43;7.77;;;21.00;1.00;;;;;;5032320;28;20474;-70
2021/03/30 12:44:58;;;;;;;13.87;7.77;;;21.10;1.00;;;;;;5032268;28;20523;-72
2021/03/30 12:47:25;;;;;;;13.43;7.10;;;21.10;1.00;;;;;;5032255;28;20935;-70
2021/03/30 12:49:52;;;;;;;10.13;7.27;;;21.20;1.00;;;;;;5032020;28;20427;-71
2021/03/30 12:52:19;;;;;;;8.77;5.63;;;21.30;1.00;;;;;;5032328;28;20427;-70
2021/03/30 12:54:47;;;;;;;10.07;6.77;;;21.00;1.00;;;;;;5031898;28;20416;-71
2021/03/30 12:57:15;;;;;;;11.30;6.77;;;20.90;1.00;;;;;;5031706;28;20455;-71
2021/03/30 12:59:42;;;;;;;14.30;5.97;;;21.10;1.00;;;;;;5032090;28;20420;-69
2021/03/30 13:02:11;;;;;;;8.93;5.70;;;21.30;1.00;;;;;;5032329;28;20407;-71
2021/03/30 13:04:43;;;;;;;9.90;5.43;;;21.50;1.00;;;;;;5031955;28;20445;-73
2021/03/30 13:07:11;;;;;;;9.30;4.33;;;21.60;1.00;;;;;;5031568;28;20490;-71
2021/03/30 13:09:40;;;;;;;7.33;4.70;;;21.60;1.00;;;;;;5032164;28;20507;-69
2021/03/30 13:12:07;;;;;;;7.90;5.97;;;21.70;1.00;;;;;;5031527;28;20905;-71
2021/03/30 13:14:35;;;;;;;10.70;5.80;;;21.60;1.00;;;;;;5031701;28;20916;-74